sensor_id;sensor_type;location;lat;lon;timestamp;P1;durP1;ratioP1;P2;durP2;ratioP2
35667;SDS011;22158;59.280;17.806;2022-09-17T00:01:06;0.35;;;0.35;;
35667;SDS011;22158;59.280;17.806;2022-09-17T00:03:32;0.35;;;0.32;;
35667;SDS011;22158;59.280;17.806;2022-09-17T00:06:06;1.85;;;0.52;;
35667;SDS011;22158;59.280;17.806;2022-09-17T00:08:34;0.80;;;0.70;;
35667;SDS011;22158;59.280;17.806;2022-09-17T00:11:09;0.52;;;0.50;;
35667;SDS011;22158;59.280;17.806;2022-09-17T00:13:38;0.38;;;0.38;;
35667;SDS011;22158;59.280;17.806;2022-09-17T00:16:04;2.15;;;0.50;;
35667;SDS011;22158;59.280;17.806;2022-09-17T00:18:30;2.70;;;0.40;;
35667;SDS011;22158;59.280;17.806;2022-09-17T00:20:56;0.30;;;0.30;;
35667;SDS011;22158;59.280;17.806;2022-09-17T00:23:22;1.15;;;0.95;;
35667;SDS011;22158;59.280;17.806;2022-09-17T00:25:48;1.38;;;0.68;;
35667;SDS011;22158;59.280;17.806;2022-09-17T00:28:13;0.65;;;0.52;;
35667;SDS011;22158;59.280;17.806;2022-09-17T00:30:40;1.23;;;0.50;;
35667;SDS011;22158;59.280;17.806;2022-09-17T00:33:06;0.45;;;0.40;;
35667;SDS011;22158;59.280;17.806;2022-09-17T00:35:33;0.70;;;0.60;;
35667;SDS011;22158;59.280;17.806;2022-09-17T00:37:59;0.73;;;0.50;;
35667;SDS011;22158;59.280;17.806;2022-09-17T00:40:24;1.40;;;0.80;;
35667;SDS011;22158;59.280;17.806;2022-09-17T00:42:50;0.75;;;0.52;;
35667;SDS011;22158;59.280;17.806;2022-09-17T00:45:17;0.57;;;0.50;;
35667;SDS011;22158;59.280;17.806;2022-09-17T00:50:39;0.68;;;0.50;;
35667;SDS011;22158;59.280;17.806;2022-09-17T00:53:10;0.32;;;0.32;;
35667;SDS011;22158;59.280;17.806;2022-09-17T00:55:41;4.20;;;0.50;;
35667;SDS011;22158;59.280;17.806;2022-09-17T00:58:11;0.57;;;0.40;;
35667;SDS011;22158;59.280;17.806;2022-09-17T01:00:39;0.88;;;0.60;;
35667;SDS011;22158;59.280;17.806;2022-09-17T01:03:05;0.75;;;0.40;;
35667;SDS011;22158;59.280;17.806;2022-09-17T01:33:01;5.38;;;0.80;;
35667;SDS011;22158;59.280;17.806;2022-09-17T01:41:11;0.52;;;0.40;;
35667;SDS011;22158;59.280;17.806;2022-09-17T01:46:53;0.85;;;0.50;;
35667;SDS011;22158;59.280;17.806;2022-09-17T01:49:22;0.68;;;0.40;;
35667;SDS011;22158;59.280;17.806;2022-09-17T01:51:49;1.20;;;0.70;;
35667;SDS011;22158;59.280;17.806;2022-09-17T01:56:55;0.70;;;0.63;;
35667;SDS011;22158;59.280;17.806;2022-09-17T01:59:30;0.60;;;0.50;;
35667;SDS011;22158;59.280;17.806;2022-09-17T02:02:43;0.98;;;0.50;;
35667;SDS011;22158;59.280;17.806;2022-09-17T02:07:33;2.28;;;0.80;;
35667;SDS011;22158;59.280;17.806;2022-09-17T02:10:11;1.58;;;0.45;;
35667;SDS011;22158;59.280;17.806;2022-09-17T02:12:43;0.57;;;0.50;;
35667;SDS011;22158;59.280;17.806;2022-09-17T02:15:14;1.17;;;0.63;;
35667;SDS011;22158;59.280;17.806;2022-09-17T02:17:46;0.70;;;0.70;;
35667;SDS011;22158;59.280;17.806;2022-09-17T02:20:15;1.40;;;0.82;;
35667;SDS011;22158;59.280;17.806;2022-09-17T02:22:44;0.60;;;0.60;;
35667;SDS011;22158;59.280;17.806;2022-09-17T02:25:35;2.35;;;0.70;;
35667;SDS011;22158;59.280;17.806;2022-09-17T02:30:48;0.60;;;0.43;;
35667;SDS011;22158;59.280;17.806;2022-09-17T02:33:14;0.45;;;0.45;;
35667;SDS011;22158;59.280;17.806;2022-09-17T02:35:40;0.70;;;0.60;;
35667;SDS011;22158;59.280;17.806;2022-09-17T02:38:08;1.13;;;0.63;;
35667;SDS011;22158;59.280;17.806;2022-09-17T02:40:36;3.30;;;1.15;;
35667;SDS011;22158;59.280;17.806;2022-09-17T02:43:50;0.50;;;0.50;;
35667;SDS011;22158;59.280;17.806;2022-09-17T03:02:29;1.42;;;0.60;;
35667;SDS011;22158;59.280;17.806;2022-09-17T03:04:57;0.82;;;0.50;;
35667;SDS011;22158;59.280;17.806;2022-09-17T03:07:25;0.68;;;0.52;;
35667;SDS011;22158;59.280;17.806;2022-09-17T03:09:53;3.50;;;0.50;;
35667;SDS011;22158;59.280;17.806;2022-09-17T03:12:18;0.40;;;0.40;;
35667;SDS011;22158;59.280;17.806;2022-09-17T03:14:44;1.17;;;0.75;;
35667;SDS011;22158;59.280;17.806;2022-09-17T03:17:10;0.95;;;0.88;;
35667;SDS011;22158;59.280;17.806;2022-09-17T03:19:37;1.05;;;0.60;;
35667;SDS011;22158;59.280;17.806;2022-09-17T03:22:02;1.13;;;0.50;;
35667;SDS011;22158;59.280;17.806;2022-09-17T03:24:28;0.50;;;0.50;;
35667;SDS011;22158;59.280;17.806;2022-09-17T03:26:53;0.95;;;0.68;;
35667;SDS011;22158;59.280;17.806;2022-09-17T03:29:19;1.60;;;0.60;;
35667;SDS011;22158;59.280;17.806;2022-09-17T03:31:45;1.08;;;0.70;;
35667;SDS011;22158;59.280;17.806;2022-09-17T03:34:11;0.85;;;0.60;;
35667;SDS011;22158;59.280;17.806;2022-09-17T03:36:36;1.05;;;0.55;;
35667;SDS011;22158;59.280;17.806;2022-09-17T03:39:02;1.02;;;0.57;;
35667;SDS011;22158;59.280;17.806;2022-09-17T03:41:28;0.52;;;0.52;;
35667;SDS011;22158;59.280;17.806;2022-09-17T03:43:54;4.65;;;0.73;;
35667;SDS011;22158;59.280;17.806;2022-09-17T03:46:19;1.00;;;0.60;;
35667;SDS011;22158;59.280;17.806;2022-09-17T03:48:45;1.05;;;0.70;;
35667;SDS011;22158;59.280;17.806;2022-09-17T03:51:11;0.60;;;0.60;;
35667;SDS011;22158;59.280;17.806;2022-09-17T03:53:37;0.73;;;0.70;;
35667;SDS011;22158;59.280;17.806;2022-09-17T03:56:03;2.33;;;0.70;;
35667;SDS011;22158;59.280;17.806;2022-09-17T03:58:30;0.70;;;0.60;;
35667;SDS011;22158;59.280;17.806;2022-09-17T04:00:56;0.93;;;0.50;;
35667;SDS011;22158;59.280;17.806;2022-09-17T04:03:22;2.05;;;0.70;;
35667;SDS011;22158;59.280;17.806;2022-09-17T04:05:48;0.73;;;0.50;;
35667;SDS011;22158;59.280;17.806;2022-09-17T04:08:14;0.52;;;0.40;;
35667;SDS011;22158;59.280;17.806;2022-09-17T04:10:40;0.40;;;0.40;;
35667;SDS011;22158;59.280;17.806;2022-09-17T04:13:05;0.82;;;0.52;;
35667;SDS011;22158;59.280;17.806;2022-09-17T04:15:31;3.35;;;1.40;;
35667;SDS011;22158;59.280;17.806;2022-09-17T04:17:57;4.40;;;0.95;;
35667;SDS011;22158;59.280;17.806;2022-09-17T04:20:23;3.13;;;0.40;;
35667;SDS011;22158;59.280;17.806;2022-09-17T04:22:49;2.05;;;0.50;;
35667;SDS011;22158;59.280;17.806;2022-09-17T04:25:15;1.52;;;0.57;;
35667;SDS011;22158;59.280;17.806;2022-09-17T04:27:42;0.50;;;0.50;;
35667;SDS011;22158;59.280;17.806;2022-09-17T04:30:08;0.82;;;0.60;;
35667;SDS011;22158;59.280;17.806;2022-09-17T04:32:34;2.88;;;0.50;;
35667;SDS011;22158;59.280;17.806;2022-09-17T04:35:00;0.38;;;0.38;;
35667;SDS011;22158;59.280;17.806;2022-09-17T04:37:25;0.65;;;0.55;;
35667;SDS011;22158;59.280;17.806;2022-09-17T04:39:51;1.40;;;0.50;;
35667;SDS011;22158;59.280;17.806;2022-09-17T04:42:17;1.20;;;0.47;;
35667;SDS011;22158;59.280;17.806;2022-09-17T04:44:43;3.08;;;0.55;;
35667;SDS011;22158;59.280;17.806;2022-09-17T04:47:08;0.70;;;0.40;;
35667;SDS011;22158;59.280;17.806;2022-09-17T04:49:34;0.55;;;0.50;;
35667;SDS011;22158;59.280;17.806;2022-09-17T04:52:00;0.50;;;0.50;;
35667;SDS011;22158;59.280;17.806;2022-09-17T04:54:25;0.45;;;0.40;;
35667;SDS011;22158;59.280;17.806;2022-09-17T04:56:51;0.80;;;0.50;;
35667;SDS011;22158;59.280;17.806;2022-09-17T04:59:17;1.55;;;0.50;;
35667;SDS011;22158;59.280;17.806;2022-09-17T05:01:42;0.70;;;0.60;;
35667;SDS011;22158;59.280;17.806;2022-09-17T05:04:08;1.73;;;1.13;;
35667;SDS011;22158;59.280;17.806;2022-09-17T05:06:34;0.85;;;0.63;;
35667;SDS011;22158;59.280;17.806;2022-09-17T05:09:00;2.05;;;0.57;;
35667;SDS011;22158;59.280;17.806;2022-09-17T05:11:28;4.85;;;0.75;;
35667;SDS011;22158;59.280;17.806;2022-09-17T05:13:54;3.47;;;0.65;;
35667;SDS011;22158;59.280;17.806;2022-09-17T05:16:20;0.75;;;0.50;;
35667;SDS011;22158;59.280;17.806;2022-09-17T05:18:46;0.80;;;0.50;;
35667;SDS011;22158;59.280;17.806;2022-09-17T05:21:13;0.63;;;0.40;;
35667;SDS011;22158;59.280;17.806;2022-09-17T05:23:39;1.02;;;0.70;;
35667;SDS011;22158;59.280;17.806;2022-09-17T05:26:05;1.33;;;0.60;;
35667;SDS011;22158;59.280;17.806;2022-09-17T05:28:30;0.40;;;0.40;;
35667;SDS011;22158;59.280;17.806;2022-09-17T05:30:59;0.52;;;0.50;;
35667;SDS011;22158;59.280;17.806;2022-09-17T05:33:25;0.65;;;0.50;;
35667;SDS011;22158;59.280;17.806;2022-09-17T05:35:51;1.45;;;0.57;;
35667;SDS011;22158;59.280;17.806;2022-09-17T05:38:17;2.15;;;0.47;;
35667;SDS011;22158;59.280;17.806;2022-09-17T05:40:43;1.27;;;0.60;;
35667;SDS011;22158;59.280;17.806;2022-09-17T05:43:09;0.50;;;0.30;;
35667;SDS011;22158;59.280;17.806;2022-09-17T05:45:36;0.93;;;0.50;;
35667;SDS011;22158;59.280;17.806;2022-09-17T05:48:03;1.50;;;0.63;;
35667;SDS011;22158;59.280;17.806;2022-09-17T05:50:30;1.15;;;0.50;;
35667;SDS011;22158;59.280;17.806;2022-09-17T05:52:56;2.78;;;0.75;;
35667;SDS011;22158;59.280;17.806;2022-09-17T05:55:31;0.55;;;0.55;;
35667;SDS011;22158;59.280;17.806;2022-09-17T05:57:59;2.50;;;0.60;;
35667;SDS011;22158;59.280;17.806;2022-09-17T06:00:24;2.72;;;0.60;;
35667;SDS011;22158;59.280;17.806;2022-09-17T06:02:56;0.52;;;0.50;;
35667;SDS011;22158;59.280;17.806;2022-09-17T06:05:23;2.05;;;0.40;;
35667;SDS011;22158;59.280;17.806;2022-09-17T06:07:49;0.45;;;0.40;;
35667;SDS011;22158;59.280;17.806;2022-09-17T06:10:15;2.38;;;1.40;;
35667;SDS011;22158;59.280;17.806;2022-09-17T06:12:41;1.58;;;0.40;;
35667;SDS011;22158;59.280;17.806;2022-09-17T06:15:06;0.63;;;0.45;;
35667;SDS011;22158;59.280;17.806;2022-09-17T06:17:33;2.15;;;0.50;;
35667;SDS011;22158;59.280;17.806;2022-09-17T06:19:59;1.05;;;0.65;;
35667;SDS011;22158;59.280;17.806;2022-09-17T06:22:25;1.02;;;0.68;;
35667;SDS011;22158;59.280;17.806;2022-09-17T06:24:51;2.28;;;0.57;;
35667;SDS011;22158;59.280;17.806;2022-09-17T06:27:17;1.52;;;0.60;;
35667;SDS011;22158;59.280;17.806;2022-09-17T06:29:42;1.15;;;0.65;;
35667;SDS011;22158;59.280;17.806;2022-09-17T06:32:08;0.73;;;0.63;;
35667;SDS011;22158;59.280;17.806;2022-09-17T06:34:35;2.38;;;0.60;;
35667;SDS011;22158;59.280;17.806;2022-09-17T06:37:01;0.50;;;0.50;;
35667;SDS011;22158;59.280;17.806;2022-09-17T06:39:27;0.93;;;0.40;;
35667;SDS011;22158;59.280;17.806;2022-09-17T06:41:52;1.05;;;0.50;;
35667;SDS011;22158;59.280;17.806;2022-09-17T06:44:18;1.48;;;0.60;;
35667;SDS011;22158;59.280;17.806;2022-09-17T06:46:43;3.47;;;0.70;;
35667;SDS011;22158;59.280;17.806;2022-09-17T06:49:09;1.40;;;0.60;;
35667;SDS011;22158;59.280;17.806;2022-09-17T06:51:35;1.10;;;0.70;;
35667;SDS011;22158;59.280;17.806;2022-09-17T06:54:01;0.60;;;0.60;;
35667;SDS011;22158;59.280;17.806;2022-09-17T06:56:27;1.15;;;0.55;;
35667;SDS011;22158;59.280;17.806;2022-09-17T06:58:53;0.75;;;0.57;;
35667;SDS011;22158;59.280;17.806;2022-09-17T07:01:18;0.60;;;0.40;;
35667;SDS011;22158;59.280;17.806;2022-09-17T07:03:44;0.90;;;0.80;;
35667;SDS011;22158;59.280;17.806;2022-09-17T07:06:10;0.40;;;0.40;;
35667;SDS011;22158;59.280;17.806;2022-09-17T07:08:36;3.30;;;1.17;;
35667;SDS011;22158;59.280;17.806;2022-09-17T07:11:03;1.15;;;0.57;;
35667;SDS011;22158;59.280;17.806;2022-09-17T07:13:29;2.05;;;0.70;;
35667;SDS011;22158;59.280;17.806;2022-09-17T07:15:55;0.98;;;0.60;;
35667;SDS011;22158;59.280;17.806;2022-09-17T07:18:25;0.55;;;0.55;;
35667;SDS011;22158;59.280;17.806;2022-09-17T07:20:54;1.20;;;0.57;;
35667;SDS011;22158;59.280;17.806;2022-09-17T07:23:29;1.20;;;0.60;;
35667;SDS011;22158;59.280;17.806;2022-09-17T07:26:00;2.45;;;0.50;;
35667;SDS011;22158;59.280;17.806;2022-09-17T07:28:27;2.47;;;0.73;;
35667;SDS011;22158;59.280;17.806;2022-09-17T07:30:53;1.63;;;0.77;;
35667;SDS011;22158;59.280;17.806;2022-09-17T07:33:21;0.75;;;0.60;;
35667;SDS011;22158;59.280;17.806;2022-09-17T07:35:51;0.70;;;0.50;;
35667;SDS011;22158;59.280;17.806;2022-09-17T07:38:21;3.08;;;0.52;;
35667;SDS011;22158;59.280;17.806;2022-09-17T07:41:01;2.42;;;0.63;;
35667;SDS011;22158;59.280;17.806;2022-09-17T07:43:33;2.25;;;0.63;;
35667;SDS011;22158;59.280;17.806;2022-09-17T07:46:00;0.68;;;0.60;;
35667;SDS011;22158;59.280;17.806;2022-09-17T07:48:27;4.13;;;0.65;;
35667;SDS011;22158;59.280;17.806;2022-09-17T07:50:54;1.15;;;0.60;;
35667;SDS011;22158;59.280;17.806;2022-09-17T07:53:20;1.15;;;0.80;;
35667;SDS011;22158;59.280;17.806;2022-09-17T07:55:53;1.13;;;0.77;;
35667;SDS011;22158;59.280;17.806;2022-09-17T07:58:26;2.13;;;0.98;;
35667;SDS011;22158;59.280;17.806;2022-09-17T08:00:58;1.38;;;0.68;;
35667;SDS011;22158;59.280;17.806;2022-09-17T08:03:28;0.95;;;0.60;;
35667;SDS011;22158;59.280;17.806;2022-09-17T08:05:59;1.00;;;0.70;;
35667;SDS011;22158;59.280;17.806;2022-09-17T08:08:28;2.97;;;0.70;;
35667;SDS011;22158;59.280;17.806;2022-09-17T08:10:58;3.00;;;0.70;;
35667;SDS011;22158;59.280;17.806;2022-09-17T08:13:28;2.63;;;0.98;;
35667;SDS011;22158;59.280;17.806;2022-09-17T08:15:58;1.33;;;0.60;;
35667;SDS011;22158;59.280;17.806;2022-09-17T08:18:24;0.95;;;0.55;;
35667;SDS011;22158;59.280;17.806;2022-09-17T08:20:51;1.50;;;1.02;;
35667;SDS011;22158;59.280;17.806;2022-09-17T08:23:16;2.08;;;1.00;;
35667;SDS011;22158;59.280;17.806;2022-09-17T08:25:42;1.15;;;0.77;;
35667;SDS011;22158;59.280;17.806;2022-09-17T08:28:08;1.05;;;0.70;;
35667;SDS011;22158;59.280;17.806;2022-09-17T08:30:33;2.45;;;1.00;;
35667;SDS011;22158;59.280;17.806;2022-09-17T08:32:59;2.80;;;1.30;;
35667;SDS011;22158;59.280;17.806;2022-09-17T08:35:24;4.90;;;2.33;;
35667;SDS011;22158;59.280;17.806;2022-09-17T08:37:53;4.07;;;1.95;;
35667;SDS011;22158;59.280;17.806;2022-09-17T08:40:19;3.15;;;1.50;;
35667;SDS011;22158;59.280;17.806;2022-09-17T08:42:58;2.38;;;0.93;;
35667;SDS011;22158;59.280;17.806;2022-09-17T08:45:26;1.23;;;0.70;;
35667;SDS011;22158;59.280;17.806;2022-09-17T08:47:59;1.55;;;0.95;;
35667;SDS011;22158;59.280;17.806;2022-09-17T08:50:33;4.38;;;0.80;;
35667;SDS011;22158;59.280;17.806;2022-09-17T08:53:18;0.85;;;0.77;;
35667;SDS011;22158;59.280;17.806;2022-09-17T08:55:59;3.75;;;1.30;;
35667;SDS011;22158;59.280;17.806;2022-09-17T08:58:50;2.28;;;1.30;;
35667;SDS011;22158;59.280;17.806;2022-09-17T09:06:44;1.30;;;1.00;;
35667;SDS011;22158;59.280;17.806;2022-09-17T09:09:17;2.88;;;0.90;;
35667;SDS011;22158;59.280;17.806;2022-09-17T09:11:47;6.55;;;4.10;;
35667;SDS011;22158;59.280;17.806;2022-09-17T09:17:02;9.95;;;7.63;;
35667;SDS011;22158;59.280;17.806;2022-09-17T09:19:33;7.82;;;4.63;;
35667;SDS011;22158;59.280;17.806;2022-09-17T09:30:57;2.90;;;1.00;;
35667;SDS011;22158;59.280;17.806;2022-09-17T09:33:38;1.83;;;1.15;;
35667;SDS011;22158;59.280;17.806;2022-09-17T09:36:07;3.47;;;2.35;;
35667;SDS011;22158;59.280;17.806;2022-09-17T09:38:43;11.80;;;6.57;;
35667;SDS011;22158;59.280;17.806;2022-09-17T09:41:23;4.35;;;2.13;;
35667;SDS011;22158;59.280;17.806;2022-09-17T09:44:00;2.60;;;1.63;;
35667;SDS011;22158;59.280;17.806;2022-09-17T09:46:35;2.75;;;0.90;;
35667;SDS011;22158;59.280;17.806;2022-09-17T09:54:27;2.85;;;1.02;;
35667;SDS011;22158;59.280;17.806;2022-09-17T09:57:07;2.47;;;1.05;;
35667;SDS011;22158;59.280;17.806;2022-09-17T09:59:36;2.05;;;1.10;;
35667;SDS011;22158;59.280;17.806;2022-09-17T10:02:03;2.58;;;0.90;;
35667;SDS011;22158;59.280;17.806;2022-09-17T10:04:29;3.33;;;2.13;;
35667;SDS011;22158;59.280;17.806;2022-09-17T10:07:00;3.75;;;1.95;;
35667;SDS011;22158;59.280;17.806;2022-09-17T10:09:27;1.77;;;1.35;;
35667;SDS011;22158;59.280;17.806;2022-09-17T10:14:28;1.63;;;1.35;;
35667;SDS011;22158;59.280;17.806;2022-09-17T10:17:14;3.67;;;2.10;;
35667;SDS011;22158;59.280;17.806;2022-09-17T10:22:42;1.35;;;0.70;;
35667;SDS011;22158;59.280;17.806;2022-09-17T10:27:54;2.17;;;1.10;;
35667;SDS011;22158;59.280;17.806;2022-09-17T10:30:22;2.28;;;1.75;;
35667;SDS011;22158;59.280;17.806;2022-09-17T10:35:52;4.43;;;2.50;;
35667;SDS011;22158;59.280;17.806;2022-09-17T10:38:37;4.97;;;1.50;;
35667;SDS011;22158;59.280;17.806;2022-09-17T10:41:11;0.70;;;0.50;;
35667;SDS011;22158;59.280;17.806;2022-09-17T10:43:37;1.00;;;0.60;;
35667;SDS011;22158;59.280;17.806;2022-09-17T10:46:03;1.40;;;0.85;;
35667;SDS011;22158;59.280;17.806;2022-09-17T10:48:35;1.15;;;0.40;;
35667;SDS011;22158;59.280;17.806;2022-09-17T10:51:10;3.08;;;0.60;;
35667;SDS011;22158;59.280;17.806;2022-09-17T10:56:36;1.00;;;0.57;;
35667;SDS011;22158;59.280;17.806;2022-09-17T11:02:18;3.03;;;0.85;;
35667;SDS011;22158;59.280;17.806;2022-09-17T11:07:58;3.42;;;1.60;;
35667;SDS011;22158;59.280;17.806;2022-09-17T11:10:42;2.65;;;1.33;;
35667;SDS011;22158;59.280;17.806;2022-09-17T11:18:52;1.00;;;0.75;;
35667;SDS011;22158;59.280;17.806;2022-09-17T11:21:31;1.02;;;0.60;;
35667;SDS011;22158;59.280;17.806;2022-09-17T11:26:54;1.33;;;0.80;;
35667;SDS011;22158;59.280;17.806;2022-09-17T11:35:11;1.92;;;0.90;;
35667;SDS011;22158;59.280;17.806;2022-09-17T11:37:47;3.90;;;1.27;;
35667;SDS011;22158;59.280;17.806;2022-09-17T11:40:27;1.70;;;1.20;;
35667;SDS011;22158;59.280;17.806;2022-09-17T11:46:12;3.05;;;1.15;;
35667;SDS011;22158;59.280;17.806;2022-09-17T11:49:22;1.15;;;0.90;;
35667;SDS011;22158;59.280;17.806;2022-09-17T15:40:24;2.22;;;0.70;;
35667;SDS011;22158;59.280;17.806;2022-09-17T15:45:31;1.17;;;0.60;;
35667;SDS011;22158;59.280;17.806;2022-09-17T15:48:03;1.05;;;0.70;;
35667;SDS011;22158;59.280;17.806;2022-09-17T15:50:30;1.05;;;0.60;;
35667;SDS011;22158;59.280;17.806;2022-09-17T15:55:38;2.47;;;0.93;;
35667;SDS011;22158;59.280;17.806;2022-09-17T16:08:42;2.13;;;1.58;;
35667;SDS011;22158;59.280;17.806;2022-09-17T16:11:18;2.85;;;1.27;;
35667;SDS011;22158;59.280;17.806;2022-09-17T16:13:45;1.75;;;1.20;;
35667;SDS011;22158;59.280;17.806;2022-09-17T16:16:21;2.35;;;1.13;;
35667;SDS011;22158;59.280;17.806;2022-09-17T16:18:50;1.13;;;0.90;;
35667;SDS011;22158;59.280;17.806;2022-09-17T16:21:17;1.90;;;1.20;;
35667;SDS011;22158;59.280;17.806;2022-09-17T16:23:43;3.67;;;1.67;;
35667;SDS011;22158;59.280;17.806;2022-09-17T16:26:20;1.90;;;1.40;;
35667;SDS011;22158;59.280;17.806;2022-09-17T16:29:11;2.33;;;1.25;;
35667;SDS011;22158;59.280;17.806;2022-09-17T16:31:40;1.95;;;1.33;;
35667;SDS011;22158;59.280;17.806;2022-09-17T16:34:06;3.22;;;1.13;;
35667;SDS011;22158;59.280;17.806;2022-09-17T16:36:31;2.53;;;1.00;;
35667;SDS011;22158;59.280;17.806;2022-09-17T16:38:58;2.72;;;1.25;;
35667;SDS011;22158;59.280;17.806;2022-09-17T16:41:23;2.70;;;1.50;;
35667;SDS011;22158;59.280;17.806;2022-09-17T16:43:49;2.20;;;1.30;;
35667;SDS011;22158;59.280;17.806;2022-09-17T16:46:15;3.88;;;1.40;;
35667;SDS011;22158;59.280;17.806;2022-09-17T16:48:40;5.07;;;1.50;;
35667;SDS011;22158;59.280;17.806;2022-09-17T16:51:09;2.67;;;1.30;;
35667;SDS011;22158;59.280;17.806;2022-09-17T16:53:35;3.22;;;1.35;;
35667;SDS011;22158;59.280;17.806;2022-09-17T16:56:05;2.17;;;1.45;;
35667;SDS011;22158;59.280;17.806;2022-09-17T16:58:31;3.75;;;2.22;;
35667;SDS011;22158;59.280;17.806;2022-09-17T17:00:57;9.02;;;5.97;;
35667;SDS011;22158;59.280;17.806;2022-09-17T17:03:24;9.68;;;7.65;;
35667;SDS011;22158;59.280;17.806;2022-09-17T17:05:49;4.72;;;3.85;;
35667;SDS011;22158;59.280;17.806;2022-09-17T17:08:15;7.95;;;4.82;;
35667;SDS011;22158;59.280;17.806;2022-09-17T17:10:41;2.95;;;2.13;;
35667;SDS011;22158;59.280;17.806;2022-09-17T17:13:06;5.60;;;3.42;;
35667;SDS011;22158;59.280;17.806;2022-09-17T17:15:32;4.28;;;2.20;;
35667;SDS011;22158;59.280;17.806;2022-09-17T17:17:58;5.32;;;2.13;;
35667;SDS011;22158;59.280;17.806;2022-09-17T17:20:23;2.58;;;1.48;;
35667;SDS011;22158;59.280;17.806;2022-09-17T17:22:49;3.45;;;1.45;;
35667;SDS011;22158;59.280;17.806;2022-09-17T17:25:16;3.03;;;1.83;;
35667;SDS011;22158;59.280;17.806;2022-09-17T17:27:42;4.15;;;1.00;;
35667;SDS011;22158;59.280;17.806;2022-09-17T17:30:09;1.70;;;1.20;;
35667;SDS011;22158;59.280;17.806;2022-09-17T17:32:40;3.47;;;1.73;;
35667;SDS011;22158;59.280;17.806;2022-09-17T17:35:07;2.75;;;1.40;;
35667;SDS011;22158;59.280;17.806;2022-09-17T17:37:33;3.63;;;1.65;;
35667;SDS011;22158;59.280;17.806;2022-09-17T17:39:59;1.50;;;0.90;;
35667;SDS011;22158;59.280;17.806;2022-09-17T17:42:25;1.58;;;1.10;;
35667;SDS011;22158;59.280;17.806;2022-09-17T17:44:51;3.15;;;1.58;;
35667;SDS011;22158;59.280;17.806;2022-09-17T17:47:19;1.30;;;1.00;;
35667;SDS011;22158;59.280;17.806;2022-09-17T17:49:45;1.50;;;0.98;;
35667;SDS011;22158;59.280;17.806;2022-09-17T17:52:12;2.50;;;1.13;;
35667;SDS011;22158;59.280;17.806;2022-09-17T17:54:38;1.55;;;1.10;;
35667;SDS011;22158;59.280;17.806;2022-09-17T17:57:03;3.95;;;1.10;;
35667;SDS011;22158;59.280;17.806;2022-09-17T17:59:29;1.95;;;1.25;;
35667;SDS011;22158;59.280;17.806;2022-09-17T18:01:55;1.95;;;0.98;;
35667;SDS011;22158;59.280;17.806;2022-09-17T18:04:20;2.55;;;1.20;;
35667;SDS011;22158;59.280;17.806;2022-09-17T18:06:46;2.28;;;1.35;;
35667;SDS011;22158;59.280;17.806;2022-09-17T18:09:13;1.60;;;1.00;;
35667;SDS011;22158;59.280;17.806;2022-09-17T18:11:38;2.55;;;1.10;;
35667;SDS011;22158;59.280;17.806;2022-09-17T18:14:04;4.95;;;1.38;;
35667;SDS011;22158;59.280;17.806;2022-09-17T18:16:30;9.25;;;1.67;;
35667;SDS011;22158;59.280;17.806;2022-09-17T18:18:56;1.70;;;1.20;;
35667;SDS011;22158;59.280;17.806;2022-09-17T18:21:25;2.50;;;1.08;;
35667;SDS011;22158;59.280;17.806;2022-09-17T18:23:50;2.95;;;1.08;;
35667;SDS011;22158;59.280;17.806;2022-09-17T18:26:26;2.03;;;0.95;;
35667;SDS011;22158;59.280;17.806;2022-09-17T18:28:52;3.03;;;1.05;;
35667;SDS011;22158;59.280;17.806;2022-09-17T18:33:49;1.52;;;0.98;;
35667;SDS011;22158;59.280;17.806;2022-09-17T18:36:18;1.73;;;1.13;;
35667;SDS011;22158;59.280;17.806;2022-09-17T18:38:44;1.38;;;0.73;;
35667;SDS011;22158;59.280;17.806;2022-09-17T18:41:10;1.73;;;0.95;;
35667;SDS011;22158;59.280;17.806;2022-09-17T18:43:37;2.83;;;0.88;;
35667;SDS011;22158;59.280;17.806;2022-09-17T18:46:03;1.15;;;0.75;;
35667;SDS011;22158;59.280;17.806;2022-09-17T18:48:29;3.25;;;0.70;;
35667;SDS011;22158;59.280;17.806;2022-09-17T18:50:56;2.92;;;0.90;;
35667;SDS011;22158;59.280;17.806;2022-09-17T18:53:24;2.00;;;0.90;;
35667;SDS011;22158;59.280;17.806;2022-09-17T18:55:50;1.65;;;0.77;;
35667;SDS011;22158;59.280;17.806;2022-09-17T18:58:16;1.15;;;0.90;;
35667;SDS011;22158;59.280;17.806;2022-09-17T19:00:41;2.53;;;1.17;;
35667;SDS011;22158;59.280;17.806;2022-09-17T19:03:07;1.67;;;1.00;;
35667;SDS011;22158;59.280;17.806;2022-09-17T19:05:33;2.03;;;0.90;;
35667;SDS011;22158;59.280;17.806;2022-09-17T19:07:58;1.25;;;0.60;;
35667;SDS011;22158;59.280;17.806;2022-09-17T19:10:24;1.23;;;0.80;;
35667;SDS011;22158;59.280;17.806;2022-09-17T19:12:50;1.52;;;0.90;;
35667;SDS011;22158;59.280;17.806;2022-09-17T19:15:16;1.17;;;0.90;;
35667;SDS011;22158;59.280;17.806;2022-09-17T19:17:41;1.35;;;0.98;;
35667;SDS011;22158;59.280;17.806;2022-09-17T19:20:07;1.77;;;1.25;;
35667;SDS011;22158;59.280;17.806;2022-09-17T19:22:33;2.75;;;1.67;;
35667;SDS011;22158;59.280;17.806;2022-09-17T19:24:58;2.78;;;1.25;;
35667;SDS011;22158;59.280;17.806;2022-09-17T19:27:24;2.45;;;1.10;;
35667;SDS011;22158;59.280;17.806;2022-09-17T19:29:50;1.88;;;1.15;;
35667;SDS011;22158;59.280;17.806;2022-09-17T19:32:15;3.83;;;1.10;;
35667;SDS011;22158;59.280;17.806;2022-09-17T19:34:41;2.55;;;1.67;;
35667;SDS011;22158;59.280;17.806;2022-09-17T19:37:07;1.80;;;1.13;;
35667;SDS011;22158;59.280;17.806;2022-09-17T19:39:34;3.67;;;1.35;;
35667;SDS011;22158;59.280;17.806;2022-09-17T19:42:00;1.42;;;0.90;;
35667;SDS011;22158;59.280;17.806;2022-09-17T19:44:25;2.38;;;1.05;;
35667;SDS011;22158;59.280;17.806;2022-09-17T19:46:51;1.50;;;1.10;;
35667;SDS011;22158;59.280;17.806;2022-09-17T19:49:17;3.30;;;1.20;;
35667;SDS011;22158;59.280;17.806;2022-09-17T19:51:43;1.30;;;0.90;;
35667;SDS011;22158;59.280;17.806;2022-09-17T19:54:09;1.52;;;0.90;;
35667;SDS011;22158;59.280;17.806;2022-09-17T19:56:35;2.13;;;1.05;;
35667;SDS011;22158;59.280;17.806;2022-09-17T19:59:01;1.77;;;1.25;;
35667;SDS011;22158;59.280;17.806;2022-09-17T20:01:27;1.02;;;0.88;;
35667;SDS011;22158;59.280;17.806;2022-09-17T20:03:53;1.73;;;1.10;;
35667;SDS011;22158;59.280;17.806;2022-09-17T20:06:18;1.33;;;0.90;;
35667;SDS011;22158;59.280;17.806;2022-09-17T20:08:45;2.67;;;0.93;;
35667;SDS011;22158;59.280;17.806;2022-09-17T20:11:15;1.95;;;1.05;;
35667;SDS011;22158;59.280;17.806;2022-09-17T20:13:42;2.85;;;1.27;;
35667;SDS011;22158;59.280;17.806;2022-09-17T20:18:38;7.80;;;1.65;;
35667;SDS011;22158;59.280;17.806;2022-09-17T20:21:15;3.15;;;1.25;;
35667;SDS011;22158;59.280;17.806;2022-09-17T20:23:46;3.08;;;1.02;;
35667;SDS011;22158;59.280;17.806;2022-09-17T20:26:12;3.28;;;1.10;;
35667;SDS011;22158;59.280;17.806;2022-09-17T20:28:38;1.70;;;1.00;;
35667;SDS011;22158;59.280;17.806;2022-09-17T20:31:07;3.40;;;0.88;;
35667;SDS011;22158;59.280;17.806;2022-09-17T20:33:37;4.22;;;1.42;;
35667;SDS011;22158;59.280;17.806;2022-09-17T20:36:04;4.53;;;1.40;;
35667;SDS011;22158;59.280;17.806;2022-09-17T20:38:32;2.65;;;1.10;;
35667;SDS011;22158;59.280;17.806;2022-09-17T20:41:02;4.25;;;1.15;;
35667;SDS011;22158;59.280;17.806;2022-09-17T20:43:36;3.38;;;1.55;;
35667;SDS011;22158;59.280;17.806;2022-09-17T20:46:03;1.35;;;0.90;;
35667;SDS011;22158;59.280;17.806;2022-09-17T20:48:31;1.40;;;0.98;;
35667;SDS011;22158;59.280;17.806;2022-09-17T20:51:01;2.05;;;1.30;;
35667;SDS011;22158;59.280;17.806;2022-09-17T20:53:30;1.08;;;0.80;;